createdAt,value
2018-02-12T00:01:49.493Z,2.20
2018-02-12T00:04:17.013Z,2.20
2018-02-12T00:06:44.670Z,2.10
2018-02-12T00:09:12.210Z,2.00
2018-02-12T00:11:39.772Z,2.00
2018-02-12T00:14:07.825Z,2.00
2018-02-12T00:16:35.430Z,2.10
2018-02-12T00:19:03.758Z,2.20
2018-02-12T00:21:31.365Z,2.20
2018-02-12T00:23:58.900Z,2.20
2018-02-12T00:26:26.412Z,2.20
2018-02-12T00:28:53.902Z,2.20
2018-02-12T00:31:22.215Z,2.10
2018-02-12T00:33:49.706Z,2.10
2018-02-12T00:36:17.231Z,2.10
2018-02-12T00:38:44.725Z,2.20
2018-02-12T00:41:12.255Z,2.10
2018-02-12T00:43:39.746Z,2.20
2018-02-12T00:46:07.270Z,2.10
2018-02-12T00:48:35.520Z,2.10
2018-02-12T00:51:03.097Z,2.10
2018-02-12T00:53:30.552Z,2.10
2018-02-12T00:55:58.054Z,2.00
2018-02-12T00:58:25.582Z,1.90
2018-02-12T01:00:53.102Z,1.90
2018-02-12T01:03:20.671Z,1.90
2018-02-12T01:05:48.189Z,1.90
2018-02-12T01:08:16.462Z,2.00
2018-02-12T01:10:44.756Z,1.90
2018-02-12T01:13:13.026Z,1.80
2018-02-12T01:15:41.308Z,1.70
2018-02-12T01:18:10.165Z,1.70
2018-02-12T01:20:37.684Z,1.70
2018-02-12T01:23:05.190Z,1.80
2018-02-12T01:25:32.714Z,1.90
2018-02-12T01:28:00.290Z,1.80
2018-02-12T01:30:27.810Z,1.90
2018-02-12T01:32:55.364Z,1.80
2018-02-12T01:35:22.838Z,1.80
2018-02-12T01:37:51.838Z,1.70
2018-02-12T01:40:19.362Z,1.70
2018-02-12T01:42:47.027Z,1.70
2018-02-12T01:45:14.522Z,1.80
2018-02-12T01:47:42.045Z,1.70
2018-02-12T01:50:19.440Z,1.70
2018-02-12T01:52:46.945Z,1.70
2018-02-12T01:55:15.209Z,1.60
2018-02-12T01:57:42.726Z,1.60
2018-02-12T02:00:10.256Z,1.60
2018-02-12T02:02:37.745Z,1.60
2018-02-12T02:05:05.254Z,1.50
2018-02-12T02:07:32.776Z,1.60
2018-02-12T02:10:00.284Z,1.50
2018-02-12T02:12:27.795Z,1.50
2018-02-12T02:14:55.297Z,1.50
2018-02-12T02:17:22.805Z,1.50
2018-02-12T02:19:51.075Z,1.50
2018-02-12T02:22:18.611Z,1.50
2018-02-12T02:24:46.094Z,1.50
2018-02-12T02:27:15.110Z,1.40
2018-02-12T02:29:43.422Z,1.40
2018-02-12T02:32:12.012Z,1.40
2018-02-12T02:34:39.555Z,1.30
2018-02-12T02:37:07.802Z,1.30
2018-02-12T02:39:35.702Z,1.30
2018-02-12T02:42:03.963Z,1.20
2018-02-12T02:44:31.473Z,1.20
2018-02-12T02:47:00.584Z,1.20
2018-02-12T02:49:28.169Z,1.20
2018-02-12T02:51:55.758Z,1.30
2018-02-12T02:54:24.513Z,1.40
2018-02-12T02:56:52.038Z,1.40
2018-02-12T02:59:20.301Z,1.40
2018-02-12T03:01:49.312Z,1.40
2018-02-12T03:04:17.769Z,1.40
2018-02-12T03:06:45.259Z,1.40
2018-02-12T03:09:13.521Z,1.30
2018-02-12T03:11:41.017Z,1.30
2018-02-12T03:14:08.502Z,1.30
2018-02-12T03:16:36.028Z,1.30
2018-02-12T03:19:04.288Z,1.20
2018-02-12T03:21:31.792Z,1.20
2018-02-12T03:23:59.289Z,1.20
2018-02-12T03:26:26.811Z,1.20
2018-02-12T03:28:54.308Z,1.20
2018-02-12T03:31:21.825Z,1.10
2018-02-12T03:33:51.085Z,1.10
2018-02-12T03:36:18.607Z,1.10
2018-02-12T03:38:46.123Z,1.10
2018-02-12T03:41:13.630Z,1.10
2018-02-12T03:43:41.177Z,1.10
2018-02-12T03:46:11.344Z,1.10
2018-02-12T03:48:38.852Z,1.10
2018-02-12T03:51:07.162Z,1.00
2018-02-12T03:53:34.697Z,1.00
2018-02-12T03:56:02.954Z,1.00
2018-02-12T03:58:30.801Z,1.00
2018-02-12T04:00:58.288Z,0.90
2018-02-12T04:03:25.841Z,0.90
2018-02-12T04:05:53.334Z,0.80
2018-02-12T04:08:20.837Z,0.90
2018-02-12T04:10:48.355Z,0.80
2018-02-12T04:13:15.853Z,0.80
2018-02-12T04:15:43.411Z,0.90
2018-02-12T04:18:11.685Z,1.00
2018-02-12T04:20:39.953Z,1.00
2018-02-12T04:23:07.495Z,1.00
2018-02-12T04:25:34.981Z,0.90
2018-02-12T04:28:03.248Z,0.90
2018-02-12T04:30:30.810Z,0.90
2018-02-12T04:32:58.309Z,0.90
2018-02-12T04:35:25.801Z,0.90
2018-02-12T04:37:53.296Z,1.00
2018-02-12T04:40:20.816Z,1.00
2018-02-12T04:42:48.348Z,1.00
2018-02-12T04:45:16.615Z,0.90
2018-02-12T04:47:44.893Z,0.90
2018-02-12T04:50:13.170Z,1.00
2018-02-12T04:52:42.197Z,0.90
2018-02-12T04:55:10.473Z,1.00
2018-02-12T04:57:38.749Z,1.10
2018-02-12T05:00:07.011Z,1.30
2018-02-12T05:02:34.511Z,1.30
2018-02-12T05:05:02.000Z,1.40
2018-02-12T05:07:29.513Z,1.40
2018-02-12T05:09:57.756Z,1.40
2018-02-12T05:12:25.318Z,1.40
2018-02-12T05:14:52.780Z,1.40
2018-02-12T05:17:20.284Z,1.50
2018-02-12T05:19:48.527Z,1.60
2018-02-12T05:22:16.013Z,1.60
2018-02-12T05:24:43.519Z,1.70
2018-02-12T05:27:11.061Z,1.80
2018-02-12T05:29:39.394Z,2.10
2018-02-12T05:32:07.641Z,2.10
2018-02-12T05:34:35.162Z,2.10
2018-02-12T05:37:02.651Z,2.00
2018-02-12T05:39:31.014Z,2.00
2018-02-12T05:42:00.027Z,1.90
2018-02-12T05:44:28.283Z,1.90
2018-02-12T05:46:55.811Z,1.90
2018-02-12T05:49:23.312Z,1.90
2018-02-12T05:51:50.810Z,1.90
2018-02-12T05:54:18.357Z,2.00
2018-02-12T05:56:46.622Z,2.00
2018-02-12T05:59:14.127Z,2.00
2018-02-12T06:01:41.622Z,2.10
2018-02-12T06:04:09.129Z,2.10
2018-02-12T06:06:37.403Z,2.10
2018-02-12T06:09:07.507Z,2.10
2018-02-12T06:11:35.782Z,2.00
2018-02-12T06:14:03.290Z,2.00
2018-02-12T06:16:30.800Z,2.00
2018-02-12T06:18:58.321Z,1.90
2018-02-12T06:21:25.829Z,1.90
2018-02-12T06:23:53.341Z,2.00
2018-02-12T06:26:22.024Z,1.80
2018-02-12T06:28:50.308Z,1.90
2018-02-12T06:31:17.873Z,1.90
2018-02-12T06:33:46.589Z,1.90
2018-02-12T06:36:14.942Z,1.80
2018-02-12T06:38:43.288Z,1.70
2018-02-12T06:41:10.817Z,1.70
2018-02-12T06:43:38.347Z,1.70
2018-02-12T06:46:06.627Z,1.80
2018-02-12T06:48:34.931Z,1.80
2018-02-12T06:51:02.432Z,1.70
2018-02-12T06:53:29.926Z,1.70
2018-02-12T06:55:58.205Z,1.90
2018-02-12T06:58:25.740Z,1.90
2018-02-12T07:00:53.281Z,1.90
2018-02-12T07:03:20.771Z,2.10
2018-02-12T07:05:48.560Z,2.10
2018-02-12T07:08:16.080Z,2.30
2018-02-12T07:10:43.600Z,2.40
2018-02-12T07:13:11.877Z,2.50
2018-02-12T07:15:40.151Z,2.60
2018-02-12T07:18:07.655Z,2.60
2018-02-12T07:20:35.180Z,2.70
2018-02-12T07:23:03.454Z,2.80
2018-02-12T07:25:31.765Z,2.90
2018-02-12T07:28:00.071Z,2.90
2018-02-12T07:30:27.563Z,2.90
2018-02-12T07:32:55.088Z,3.00
2018-02-12T07:35:22.649Z,3.00
2018-02-12T07:37:50.276Z,3.10
2018-02-12T07:40:18.619Z,3.20
2018-02-12T07:42:46.116Z,3.20
2018-02-12T07:45:13.637Z,3.20
2018-02-12T07:47:41.183Z,3.30
2018-02-12T07:50:08.696Z,3.40
2018-02-12T07:52:36.223Z,3.30
2018-02-12T07:55:03.755Z,3.40
2018-02-12T07:57:32.045Z,3.60
2018-02-12T07:59:59.989Z,3.60
2018-02-12T08:02:27.504Z,3.60
2018-02-12T08:04:55.068Z,3.70
2018-02-12T08:07:22.590Z,3.80
2018-02-12T08:09:50.877Z,3.90
2018-02-12T08:12:19.184Z,3.90
2018-02-12T08:14:46.715Z,3.90
2018-02-12T08:17:15.021Z,4.00
2018-02-12T08:19:42.653Z,4.00
2018-02-12T08:22:10.974Z,3.90
2018-02-12T08:24:38.512Z,3.90
2018-02-12T08:27:06.854Z,3.90
2018-02-12T08:29:34.402Z,3.90
2018-02-12T08:32:02.074Z,3.90
2018-02-12T08:34:30.058Z,4.00
2018-02-12T08:36:59.795Z,4.00
2018-02-12T08:39:28.313Z,4.00
2018-02-12T08:41:55.842Z,4.00
2018-02-12T08:44:23.776Z,4.00
2018-02-12T08:46:52.125Z,4.00
2018-02-12T08:49:20.393Z,3.90
2018-02-12T08:51:48.678Z,3.90
2018-02-12T08:54:17.060Z,3.90
2018-02-12T08:56:45.323Z,4.00
2018-02-12T08:59:12.871Z,3.90
2018-02-12T09:01:40.395Z,4.00
2018-02-12T09:04:07.906Z,4.10
2018-02-12T09:06:35.468Z,4.10
2018-02-12T09:09:03.182Z,4.20
2018-02-12T09:11:30.763Z,4.20
2018-02-12T09:13:59.401Z,4.20
2018-02-12T09:16:27.029Z,4.20
2018-02-12T09:18:54.820Z,4.20
2018-02-12T09:21:22.362Z,4.20
2018-02-12T09:23:49.927Z,4.20
2018-02-12T09:26:17.422Z,4.20
2018-02-12T09:28:44.914Z,4.10
2018-02-12T09:31:13.195Z,4.00
2018-02-12T09:33:41.486Z,3.90
2018-02-12T09:36:09.794Z,4.00
2018-02-12T09:38:37.288Z,3.90
2018-02-12T09:41:04.825Z,4.10
2018-02-12T09:43:32.388Z,4.20
2018-02-12T09:45:59.946Z,4.20
2018-02-12T09:48:27.521Z,4.20
2018-02-12T09:50:55.744Z,4.30
2018-02-12T09:53:24.053Z,4.40
2018-02-12T09:55:51.790Z,4.40
2018-02-12T09:58:19.670Z,4.50
2018-02-12T10:00:48.156Z,4.60
2018-02-12T10:03:16.429Z,4.60
2018-02-12T10:05:45.474Z,4.60
2018-02-12T10:08:13.000Z,4.60
2018-02-12T10:10:41.273Z,4.60
2018-02-12T10:13:09.546Z,4.70
2018-02-12T10:15:37.113Z,4.70
2018-02-12T10:18:04.628Z,4.90
2018-02-12T10:20:32.140Z,5.00
2018-02-12T10:22:59.648Z,5.20
2018-02-12T10:25:27.183Z,5.30
2018-02-12T10:27:55.535Z,5.40
2018-02-12T10:30:23.083Z,5.30
2018-02-12T10:32:50.609Z,5.40
2018-02-12T10:35:18.945Z,5.40
2018-02-12T10:37:46.553Z,5.30
2018-02-12T10:40:14.073Z,5.30
2018-02-12T10:42:41.646Z,5.30
2018-02-12T10:45:09.134Z,5.30
2018-02-12T10:47:37.413Z,5.30
2018-02-12T10:50:05.846Z,5.20
2018-02-12T10:52:33.383Z,5.20
2018-02-12T10:55:00.936Z,5.10
2018-02-12T10:57:29.336Z,5.10
2018-02-12T10:59:56.841Z,5.10
2018-02-12T11:02:24.369Z,5.10
2018-02-12T11:04:51.865Z,5.20
2018-02-12T11:07:19.371Z,5.20
2018-02-12T11:09:46.890Z,5.10
2018-02-12T11:12:14.404Z,5.10
2018-02-12T11:14:41.949Z,5.10
2018-02-12T11:17:10.489Z,5.00
2018-02-12T11:19:38.037Z,5.00
2018-02-12T11:22:05.623Z,5.00
2018-02-12T11:24:33.132Z,5.00
2018-02-12T11:27:01.412Z,5.10
2018-02-12T11:29:28.919Z,5.10
2018-02-12T11:31:56.403Z,5.30
2018-02-12T11:34:23.914Z,5.50
2018-02-12T11:36:52.182Z,5.60
2018-02-12T11:39:20.461Z,5.60
2018-02-12T11:41:48.349Z,5.60
2018-02-12T11:44:16.672Z,5.70
2018-02-12T11:46:44.183Z,5.70
2018-02-12T11:49:12.458Z,5.60
2018-02-12T11:51:40.032Z,5.50
2018-02-12T11:54:07.652Z,5.50
2018-02-12T11:56:35.210Z,5.50
2018-02-12T11:59:02.861Z,5.50
2018-02-12T12:01:30.400Z,5.50
2018-02-12T12:03:58.693Z,5.30
2018-02-12T12:06:26.273Z,5.30
2018-02-12T12:08:53.843Z,5.10
2018-02-12T12:11:21.377Z,5.10
2018-02-12T12:13:49.636Z,5.70
2018-02-12T12:16:17.921Z,6.00
2018-02-12T12:18:45.429Z,6.00
2018-02-12T12:21:12.952Z,6.20
2018-02-12T12:23:41.228Z,6.20
2018-02-12T12:26:09.494Z,6.30
2018-02-12T12:28:36.979Z,6.20
2018-02-12T12:31:05.279Z,5.90
2018-02-12T12:33:32.814Z,5.90
2018-02-12T12:36:01.105Z,5.80
2018-02-12T12:38:29.367Z,5.80
2018-02-12T12:40:56.905Z,5.80
2018-02-12T12:43:24.414Z,5.80
2018-02-12T12:45:52.725Z,6.10
2018-02-12T12:48:20.243Z,6.10
2018-02-12T12:50:48.557Z,6.40
2018-02-12T12:53:16.077Z,6.40
2018-02-12T12:55:43.642Z,6.50
2018-02-12T12:58:12.662Z,6.50
2018-02-12T13:00:40.928Z,6.40
2018-02-12T13:03:08.428Z,6.40
2018-02-12T13:05:35.961Z,6.30
2018-02-12T13:08:03.442Z,6.10
2018-02-12T13:10:31.004Z,6.00
2018-02-12T13:12:59.277Z,5.90
2018-02-12T13:15:27.614Z,5.90
2018-02-12T13:17:55.116Z,5.90
2018-02-12T13:20:23.407Z,6.00
2018-02-12T13:22:51.706Z,6.20
2018-02-12T13:25:19.274Z,6.20
2018-02-12T13:27:46.781Z,6.50
2018-02-12T13:30:14.272Z,6.70
2018-02-12T13:32:42.556Z,6.60
2018-02-12T13:35:10.813Z,6.50
2018-02-12T13:37:38.343Z,6.40
2018-02-12T13:40:05.847Z,6.40
2018-02-12T13:42:34.166Z,6.20
2018-02-12T13:45:02.477Z,6.20
2018-02-12T13:47:30.016Z,6.10
2018-02-12T13:49:57.524Z,6.00
2018-02-12T13:52:25.033Z,6.00
2018-02-12T13:54:52.633Z,5.80
2018-02-12T13:57:20.124Z,5.90
2018-02-12T13:59:47.649Z,6.20
2018-02-12T14:02:15.163Z,6.60
2018-02-12T14:04:43.468Z,6.60
2018-02-12T14:07:10.982Z,6.60
2018-02-12T14:09:39.447Z,6.40
2018-02-12T14:12:07.957Z,6.20
2018-02-12T14:14:35.442Z,6.10
2018-02-12T14:17:02.987Z,6.20
2018-02-12T14:19:30.492Z,6.30
2018-02-12T14:21:58.086Z,6.20
2018-02-12T14:24:25.630Z,6.00
2018-02-12T14:26:53.136Z,5.80
2018-02-12T14:29:22.062Z,5.70
2018-02-12T14:31:50.385Z,5.80
2018-02-12T14:34:17.876Z,5.70
2018-02-12T14:36:45.393Z,5.90
2018-02-12T14:39:13.576Z,6.20
2018-02-12T14:41:41.090Z,6.30
2018-02-12T14:44:08.600Z,6.30
2018-02-12T14:46:36.299Z,6.20
2018-02-12T14:49:03.824Z,6.10
2018-02-12T14:51:31.332Z,6.00
2018-02-12T14:53:58.871Z,5.80
2018-02-12T14:56:26.353Z,5.70
2018-02-12T14:58:53.887Z,5.70
2018-02-12T15:01:22.081Z,5.50
2018-02-12T15:03:49.652Z,5.40
2018-02-12T15:06:17.180Z,5.20
2018-02-12T15:08:44.678Z,5.10
2018-02-12T15:11:12.155Z,5.00
2018-02-12T15:13:39.700Z,4.90
2018-02-12T15:16:07.292Z,4.80
2018-02-12T15:18:34.783Z,4.90
2018-02-12T15:21:03.079Z,4.80
2018-02-12T15:23:30.634Z,4.80
2018-02-12T15:25:58.159Z,4.80
2018-02-12T15:28:25.920Z,4.80
2018-02-12T15:30:53.484Z,4.80
2018-02-12T15:33:21.010Z,4.70
2018-02-12T15:35:48.626Z,4.70
2018-02-12T15:38:16.144Z,4.70
2018-02-12T15:40:58.656Z,4.60
2018-02-12T15:43:26.213Z,4.60
2018-02-12T15:45:53.775Z,4.50
2018-02-12T15:48:21.322Z,4.50
2018-02-12T15:50:49.608Z,4.40
2018-02-12T15:53:17.102Z,4.40
2018-02-12T15:55:44.729Z,4.30
2018-02-12T15:58:13.038Z,4.20
2018-02-12T16:00:40.599Z,4.20
2018-02-12T16:03:08.100Z,4.20
2018-02-12T16:05:35.621Z,4.20
2018-02-12T16:08:03.139Z,4.20
2018-02-12T16:10:30.634Z,4.20
2018-02-12T16:12:58.398Z,4.20
2018-02-12T16:15:26.688Z,4.00
2018-02-12T16:17:54.197Z,3.90
2018-02-12T16:20:21.677Z,3.60
2018-02-12T16:22:49.257Z,3.30
2018-02-12T16:25:16.869Z,3.20
2018-02-12T16:27:45.339Z,3.10
2018-02-12T16:30:13.029Z,2.90
2018-02-12T16:32:40.560Z,2.90
2018-02-12T16:35:08.105Z,2.80
2018-02-12T16:37:36.463Z,2.70
2018-02-12T16:40:03.985Z,2.70
2018-02-12T16:42:31.492Z,2.80
2018-02-12T16:44:59.018Z,2.70
2018-02-12T16:47:26.561Z,2.70
2018-02-12T16:49:54.077Z,2.70
2018-02-12T16:52:21.589Z,2.70
2018-02-12T16:54:49.121Z,2.70
2018-02-12T16:57:16.604Z,2.80
2018-02-12T16:59:44.876Z,2.80
2018-02-12T17:02:13.140Z,2.90
2018-02-12T17:04:40.643Z,2.90
2018-02-12T17:07:08.141Z,2.90
2018-02-12T17:09:35.704Z,2.90
2018-02-12T17:12:03.225Z,2.90
2018-02-12T17:14:31.505Z,2.80
2018-02-12T17:16:59.816Z,2.80
2018-02-12T17:19:27.358Z,2.80
2018-02-12T17:21:54.870Z,2.80
2018-02-12T17:24:22.373Z,2.80
2018-02-12T17:26:50.637Z,2.70
2018-02-12T17:29:18.897Z,2.70
2018-02-12T17:31:46.397Z,2.70
2018-02-12T17:34:14.685Z,2.80
2018-02-12T17:36:42.928Z,2.70
2018-02-12T17:39:10.421Z,2.70
2018-02-12T17:41:38.688Z,2.70
2018-02-12T17:44:07.004Z,2.70
2018-02-12T17:46:34.562Z,2.60
2018-02-12T17:49:02.090Z,2.70
2018-02-12T17:51:29.619Z,2.70
2018-02-12T17:53:58.074Z,2.60
2018-02-12T17:56:25.644Z,2.60
2018-02-12T17:58:53.167Z,2.60
2018-02-12T18:01:20.757Z,2.70
2018-02-12T18:03:49.058Z,2.60
2018-02-12T18:06:16.622Z,2.60
2018-02-12T18:08:44.111Z,2.60
2018-02-12T18:11:11.614Z,2.60
2018-02-12T18:13:39.920Z,2.60
2018-02-12T18:16:07.426Z,2.60
2018-02-12T18:18:34.949Z,2.60
2018-02-12T18:21:02.513Z,2.50
2018-02-12T18:23:30.025Z,2.60
2018-02-12T18:25:57.661Z,2.60
2018-02-12T18:28:25.202Z,2.50
2018-02-12T18:30:52.767Z,2.50
2018-02-12T18:33:20.322Z,2.60
2018-02-12T18:35:48.613Z,2.50
2018-02-12T18:38:16.279Z,2.50
2018-02-12T18:40:43.982Z,2.50
2018-02-12T18:43:11.495Z,2.40
2018-02-12T18:45:40.928Z,2.40
2018-02-12T18:48:08.448Z,2.40
2018-02-12T18:50:36.750Z,2.30
2018-02-12T18:53:04.355Z,2.40
2018-02-12T18:55:31.882Z,2.40
2018-02-12T18:57:59.444Z,2.40
2018-02-12T19:00:27.763Z,2.40
2018-02-12T19:02:55.379Z,2.40
2018-02-12T19:05:23.668Z,2.40
2018-02-12T19:07:51.986Z,2.30
2018-02-12T19:10:19.486Z,2.30
2018-02-12T19:12:47.030Z,2.30
2018-02-12T19:15:14.573Z,2.30
2018-02-12T19:17:42.109Z,2.30
2018-02-12T19:20:10.391Z,2.30
2018-02-12T19:22:38.662Z,2.20
2018-02-12T19:25:06.946Z,2.20
2018-02-12T19:27:35.219Z,2.20
2018-02-12T19:30:04.510Z,2.30
2018-02-12T19:32:31.997Z,2.20
2018-02-12T19:35:00.314Z,2.20
2018-02-12T19:37:27.926Z,2.20
2018-02-12T19:39:55.477Z,2.20
2018-02-12T19:42:23.013Z,2.10
2018-02-12T19:44:51.192Z,2.10
2018-02-12T19:47:18.702Z,2.10
2018-02-12T19:49:47.419Z,2.10
2018-02-12T19:52:14.918Z,2.10
2018-02-12T19:54:42.435Z,2.20
2018-02-12T19:57:10.713Z,2.20
2018-02-12T19:59:39.000Z,2.10
2018-02-12T20:02:06.559Z,2.10
2018-02-12T20:04:34.840Z,2.00
2018-02-12T20:07:03.131Z,2.00
2018-02-12T20:09:30.655Z,2.00
2018-02-12T20:11:58.184Z,2.00
2018-02-12T20:14:25.694Z,2.00
2018-02-12T20:16:54.041Z,2.00
2018-02-12T20:19:21.560Z,2.00
2018-02-12T20:21:49.066Z,2.00
2018-02-12T20:24:16.641Z,2.00
2018-02-12T20:26:44.208Z,2.00
2018-02-12T20:29:11.737Z,2.00
2018-02-12T20:31:39.258Z,1.90
2018-02-12T20:34:07.551Z,1.90
2018-02-12T20:36:36.037Z,1.90
2018-02-12T20:39:04.355Z,1.90
2018-02-12T20:41:31.911Z,1.90
2018-02-12T20:43:59.432Z,1.90
2018-02-12T20:46:26.992Z,1.90
2018-02-12T20:48:54.622Z,1.90
2018-02-12T20:51:22.249Z,1.80
2018-02-12T20:53:50.508Z,1.70
2018-02-12T20:56:18.869Z,1.70
2018-02-12T20:58:46.525Z,1.70
2018-02-12T21:01:14.125Z,1.70
2018-02-12T21:03:44.083Z,1.70
2018-02-12T21:06:11.627Z,1.70
2018-02-12T21:08:39.332Z,1.70
2018-02-12T21:11:07.897Z,1.70
2018-02-12T21:13:35.918Z,1.60
2018-02-12T21:16:04.255Z,1.50
2018-02-12T21:18:31.804Z,1.60
2018-02-12T21:21:00.084Z,1.50
2018-02-12T21:23:28.617Z,1.40
2018-02-12T21:25:56.121Z,1.40
2018-02-12T21:28:24.425Z,1.40
2018-02-12T21:30:51.994Z,1.40
2018-02-12T21:33:19.584Z,1.50
2018-02-12T21:35:48.002Z,1.40
2018-02-12T21:38:15.617Z,1.40
2018-02-12T21:40:43.183Z,1.40
2018-02-12T21:43:11.424Z,1.30
2018-02-12T21:45:38.917Z,1.30
2018-02-12T21:48:06.787Z,1.30
2018-02-12T21:50:34.329Z,1.20
2018-02-12T21:53:02.825Z,1.30
2018-02-12T21:55:30.329Z,1.30
2018-02-12T21:57:57.838Z,1.30
2018-02-12T22:00:26.169Z,1.20
2018-02-12T22:02:53.694Z,1.20
2018-02-12T22:05:21.967Z,1.20
2018-02-12T22:07:50.246Z,1.20
2018-02-12T22:10:19.540Z,1.20
2018-02-12T22:12:47.084Z,1.20
2018-02-12T22:15:14.625Z,1.20
2018-02-12T22:17:42.149Z,1.10
2018-02-12T22:20:10.461Z,1.10
2018-02-12T22:22:37.998Z,1.10
2018-02-12T22:25:06.262Z,1.10
2018-02-12T22:27:34.533Z,1.10
2018-02-12T22:30:02.030Z,1.10
2018-02-12T22:32:29.539Z,1.20
2018-02-12T22:34:58.925Z,1.20
2018-02-12T22:37:26.428Z,1.20
2018-02-12T22:39:53.951Z,1.20
2018-02-12T22:42:21.462Z,1.20
2018-02-12T22:44:49.058Z,1.30
2018-02-12T22:47:16.600Z,1.30
2018-02-12T22:49:44.903Z,1.20
2018-02-12T22:52:12.416Z,1.20
2018-02-12T22:54:41.125Z,1.20
2018-02-12T22:57:08.638Z,1.10
2018-02-12T22:59:36.180Z,1.10
2018-02-12T23:02:03.677Z,1.20
2018-02-12T23:04:31.225Z,1.20
2018-02-12T23:06:58.768Z,1.20
2018-02-12T23:09:26.484Z,1.10
2018-02-12T23:11:53.989Z,1.10
2018-02-12T23:14:22.257Z,1.00
2018-02-12T23:16:56.245Z,1.00
2018-02-12T23:19:25.434Z,0.90
2018-02-12T23:21:52.930Z,0.90
2018-02-12T23:24:21.046Z,0.90
2018-02-12T23:26:48.574Z,0.80
2018-02-12T23:29:16.850Z,0.90
2018-02-12T23:31:44.365Z,0.90
2018-02-12T23:34:12.004Z,0.80
2018-02-12T23:36:39.765Z,0.80
2018-02-12T23:39:07.321Z,0.90
2018-02-12T23:41:35.582Z,0.70
2018-02-12T23:44:03.300Z,0.70
2018-02-12T23:46:32.364Z,0.60
2018-02-12T23:49:00.641Z,0.60
2018-02-12T23:51:29.174Z,0.60
2018-02-12T23:53:56.693Z,0.50
2018-02-12T23:56:24.270Z,0.60
2018-02-12T23:58:52.544Z,0.70
